Impacts METAR Board
IDs:

KMDW - Chicago/Midway Intl, IL, US

Updated at: 0600 UTC 07 Dec 2022
Potential Impact None Slight Moderate High
Time 06/18Z 06/19Z 06/20Z 06/21Z 06/22Z 06/23Z 07/00Z 07/01Z 07/02Z 07/03Z 07/04Z 07/05Z 07/06Z
Temp43 43 43 43 43 43 42 42 42 41 41 37 37
Dewpt39 39 38 37 37 36 36 36 36 36 36 35 35
Altim30.01 29.99 30.00 30.00 30.01 30.02 30.02 30.03 30.05 30.06 30.06 30.08 30.10
VIS5 5 6 6 6 8 8 10 9 8 8 6 6
CIG8 9 11 15 14 30 41 33 33 19 -- -- 18
CoverOVCOVCOVCOVCOVCOVCOVCOVCOVCOVCFEWFEWBKN
FltCatIFRIFRMVFRMVFRMVFRMVFRVFRVFRVFRMVFRVFRVFRMVFR
WXBRBRBRBRBR------------BRBR
WDir2040330360208090901301300340330
WSpd3 5 4 8 6 6 6 4 5 4 0 3 4
WGst-- -- -- -- -- -- -- -- -- -- -- -- --
Raw hourly METARs
KMDW 061753Z 02003KT 5SM BR OVC008 06/04 A3001 RMK AO2 DZE1657 SLP169 P0000 60000 T00610039 10061 20050 58005
KMDW 061853Z 04005KT 5SM BR OVC009 06/04 A2999 RMK AO2 SLP162 T00610039
KMDW 061953Z 33004KT 6SM BR OVC011 06/03 A3000 RMK AO2 SLP165 T00610033
KMDW 062053Z 36008KT 6SM BR BKN015 OVC020 06/03 A3000 RMK AO2 SLP166 T00610028 56003
KMDW 062153Z 02006KT 6SM BR BKN014 OVC017 06/03 A3001 RMK AO2 SLP169 T00610028
KMDW 062253Z 08006KT 8SM SCT017 BKN030 OVC065 06/02 A3002 RMK AO2 SLP171 T00610022
KMDW 062353Z 09006KT 8SM SCT012 BKN041 OVC070 06/02 A3002 RMK AO2 SLP173 T00560022 10067 20056 51007
KMDW 070053Z 09004KT 10SM FEW012 BKN033 OVC120 06/02 A3003 RMK AO2 SLP176 T00560022
KMDW 070153Z 13005KT 9SM FEW014 SCT021 BKN033 OVC130 06/02 A3005 RMK AO2 SLP181 T00560022
KMDW 070253Z 13004KT 8SM SCT014 BKN019 BKN033 OVC130 05/02 A3006 RMK AO2 SLP184 T00500022 51012
KMDW 070353Z 00000KT 8SM FEW033 05/02 A3006 RMK AO2 SLP187 T00500022
KMDW 070453Z 34003KT 6SM BR FEW033 03/02 A3008 RMK AO2 SLP194 T00280017
KMDW 070553Z 33004KT 6SM BR BKN018 03/02 A3010 RMK AO2 SLP198 T00280017 10061 20022 400670022 53013



Page loaded:  06:35 UTC  |   10:35 PM Pacific  |   11:35 PM Mountain  |   12:35 AM Central  |   01:35 AM Eastern

 

ADVISORIES

FORECASTS

FORECASTS

OBSERVATIONS

USER TOOLS

ABOUT US